Time;durP1;ratioP1;P1;durP2;ratioP2;P2;SDS_P1;SDS_P2;PMS_P1;PMS_P2;Temp;Humidity;BMP_temperature;BMP_pressure;BME280_temperature;BME280_humidity;BME280_pressure;Samples;Min_cycle;Max_cycle;Signal;HPM_P1;HPM_P2
2023/01/27 00:01:19;;;;;;;6.2;4.9;;;;;;;;;;;;;
2023/01/27 00:03:44;;;;;;;5.9;4.5;;;;;;;;;;;;;
2023/01/27 00:06:10;;;;;;;5;3.9;;;;;;;;;;;;;
2023/01/27 00:08:35;;;;;;;4.8;4;;;;;;;;;;;;;
2023/01/27 00:13:30;;;;;;;4.9;3.5;;;;;;;;;;;;;
2023/01/27 00:15:55;;;;;;;4.8;4.2;;;;;;;;;;;;;
2023/01/27 00:18:24;;;;;;;4.7;4;;;;;;;;;;;;;
2023/01/27 00:25:57;;;;;;;4.3;3.5;;;;;;;;;;;;;
2023/01/27 00:28:21;;;;;;;5.4;3.9;;;;;;;;;;;;;
2023/01/27 00:30:43;;;;;;;4.6;3.6;;;;;;;;;;;;;
2023/01/27 00:33:25;;;;;;;5.7;3.9;;;;;;;;;;;;;
2023/01/27 00:35:35;;;;;;;5.3;3.8;;;;;;;;;;;;;
2023/01/27 00:38:03;;;;;;;4.3;3.5;;;;;;;;;;;;;
2023/01/27 00:40:28;;;;;;;5.7;4.1;;;;;;;;;;;;;
2023/01/27 00:42:57;;;;;;;4.4;3.6;;;;;;;;;;;;;
2023/01/27 00:47:50;;;;;;;4.6;3.8;;;;;;;;;;;;;
2023/01/27 00:50:19;;;;;;;5;4.1;;;;;;;;;;;;;
2023/01/27 00:52:44;;;;;;;4.8;4;;;;;;;;;;;;;
2023/01/27 00:55:11;;;;;;;4;3.5;;;;;;;;;;;;;
2023/01/27 00:57:36;;;;;;;8.2;4.4;;;;;;;;;;;;;
2023/01/27 01:00:01;;;;;;;5.7;3.8;;;;;;;;;;;;;
2023/01/27 01:02:26;;;;;;;5.1;4.1;;;;;;;;;;;;;
2023/01/27 01:04:52;;;;;;;5;3.9;;;;;;;;;;;;;
2023/01/27 01:07:17;;;;;;;5.5;4;;;;;;;;;;;;;
2023/01/27 01:09:43;;;;;;;5.1;4.3;;;;;;;;;;;;;
2023/01/27 01:12:08;;;;;;;4.6;3.9;;;;;;;;;;;;;
2023/01/27 01:14:35;;;;;;;5;3.9;;;;;;;;;;;;;
2023/01/27 01:17:00;;;;;;;5.9;4.3;;;;;;;;;;;;;
2023/01/27 01:19:26;;;;;;;5.4;4.2;;;;;;;;;;;;;
2023/01/27 01:21:51;;;;;;;5.1;4.2;;;;;;;;;;;;;
2023/01/27 01:24:17;;;;;;;6.1;4.5;;;;;;;;;;;;;
2023/01/27 01:26:42;;;;;;;5.7;4.3;;;;;;;;;;;;;
2023/01/27 01:29:07;;;;;;;7.2;4.7;;;;;;;;;;;;;
2023/01/27 01:31:32;;;;;;;5.8;4.4;;;;;;;;;;;;;
2023/01/27 01:33:59;;;;;;;7.3;4.5;;;;;;;;;;;;;
2023/01/27 01:36:24;;;;;;;5.8;4.1;;;;;;;;;;;;;
2023/01/27 01:38:50;;;;;;;9.3;4.5;;;;;;;;;;;;;
2023/01/27 01:41:15;;;;;;;5.1;3.9;;;;;;;;;;;;;
2023/01/27 01:43:42;;;;;;;5.4;4.3;;;;;;;;;;;;;
2023/01/27 01:46:07;;;;;;;6.7;3.9;;;;;;;;;;;;;
2023/01/27 01:48:32;;;;;;;4.7;4;;;;;;;;;;;;;
2023/01/27 01:50:57;;;;;;;4.8;4;;;;;;;;;;;;;
2023/01/27 01:53:26;;;;;;;5.9;4.6;;;;;;;;;;;;;
2023/01/27 01:55:48;;;;;;;4.7;3.9;;;;;;;;;;;;;
2023/01/27 01:58:14;;;;;;;5.7;4.4;;;;;;;;;;;;;
2023/01/27 02:00:39;;;;;;;5.3;4.3;;;;;;;;;;;;;
2023/01/27 02:03:05;;;;;;;5.5;4.4;;;;;;;;;;;;;
2023/01/27 02:05:30;;;;;;;5.9;4.4;;;;;;;;;;;;;
2023/01/27 02:07:55;;;;;;;5.2;4.5;;;;;;;;;;;;;
2023/01/27 02:10:20;;;;;;;6.4;4.9;;;;;;;;;;;;;
2023/01/27 02:12:46;;;;;;;5.7;4.3;;;;;;;;;;;;;
2023/01/27 02:15:11;;;;;;;5.4;4.1;;;;;;;;;;;;;
2023/01/27 02:17:38;;;;;;;5.2;4.1;;;;;;;;;;;;;
2023/01/27 02:20:03;;;;;;;5.8;4.4;;;;;;;;;;;;;
2023/01/27 02:22:28;;;;;;;7.8;4.4;;;;;;;;;;;;;
2023/01/27 02:25:41;;;;;;;4.6;3.9;;;;;;;;;;;;;
2023/01/27 02:27:57;;;;;;;5.1;4.1;;;;;;;;;;;;;
2023/01/27 02:30:22;;;;;;;5.7;4.4;;;;;;;;;;;;;
2023/01/27 02:32:48;;;;;;;4.9;4.1;;;;;;;;;;;;;
2023/01/27 02:35:13;;;;;;;4;3.4;;;;;;;;;;;;;
2023/01/27 02:37:41;;;;;;;4.3;3.7;;;;;;;;;;;;;
2023/01/27 02:40:06;;;;;;;5.6;4.1;;;;;;;;;;;;;
2023/01/27 02:42:32;;;;;;;6.9;4.2;;;;;;;;;;;;;
2023/01/27 02:44:58;;;;;;;5;4;;;;;;;;;;;;;
2023/01/27 02:47:23;;;;;;;4.5;3.8;;;;;;;;;;;;;
2023/01/27 02:49:53;;;;;;;4.9;4.1;;;;;;;;;;;;;
2023/01/27 02:52:16;;;;;;;4.9;4.1;;;;;;;;;;;;;
2023/01/27 02:54:41;;;;;;;5;4.3;;;;;;;;;;;;;
2023/01/27 02:57:07;;;;;;;6;4.6;;;;;;;;;;;;;
2023/01/27 02:59:32;;;;;;;6.1;4.6;;;;;;;;;;;;;
2023/01/27 03:01:57;;;;;;;7.2;4.9;;;;;;;;;;;;;
2023/01/27 03:04:24;;;;;;;5.4;4.5;;;;;;;;;;;;;
2023/01/27 03:06:49;;;;;;;5.7;4.5;;;;;;;;;;;;;
2023/01/27 03:09:16;;;;;;;5.4;3.8;;;;;;;;;;;;;
2023/01/27 03:14:06;;;;;;;5.3;4;;;;;;;;;;;;;
2023/01/27 03:19:02;;;;;;;8;5.6;;;;;;;;;;;;;
2023/01/27 03:21:29;;;;;;;6;4.7;;;;;;;;;;;;;
2023/01/27 03:23:54;;;;;;;4.6;3.5;;;;;;;;;;;;;
2023/01/27 03:26:21;;;;;;;8.1;6.5;;;;;;;;;;;;;
2023/01/27 03:29:53;;;;;;;5.5;4.6;;;;;;;;;;;;;
2023/01/27 03:31:20;;;;;;;6;4.8;;;;;;;;;;;;;
2023/01/27 03:33:41;;;;;;;5.3;3.9;;;;;;;;;;;;;
2023/01/27 03:48:07;;;;;;;5.4;4.2;;;;;;;;;;;;;
2023/01/27 03:50:41;;;;;;;6;4.2;;;;;;;;;;;;;
2023/01/27 03:53:03;;;;;;;5.1;4.1;;;;;;;;;;;;;
2023/01/27 03:55:25;;;;;;;5.6;4.2;;;;;;;;;;;;;
2023/01/27 03:57:52;;;;;;;17;14;;;;;;;;;;;;;
2023/01/27 04:08:37;;;;;;;5.7;3.8;;;;;;;-1.56;77.45508;936.3605;;;;
2023/01/27 04:13:33;;;;;;;4.4;3.7;;;;;;;-1.52;77.31934;936.3242;;;;
2023/01/27 04:16:05;;;;;;;4.7;3.9;;;;;;;-1.49;77.54492;936.413;;;;
2023/01/27 04:18:30;;;;;;;5.9;4.2;;;;;;;-1.52;77.4082;936.3617;;;;
2023/01/27 04:20:58;;;;;;;5.4;3.8;;;;;;;-1.57;77.78613;936.2949;;;;
2023/01/27 04:23:23;;;;;;;5;3.8;;;;;;;-1.62;78.06445;936.0783;;;;
2023/01/27 04:25:53;;;;;;;6.7;4.6;;;;;;;-1.67;78.12109;936.1816;;;;
2023/01/27 04:28:20;;;;;;;5.8;4.4;;;;;;;-1.74;78.37402;936.0955;;;;
2023/01/27 04:30:45;;;;;;;5.1;4;;;;;;;-1.76;78.68359;936.1891;;;;
2023/01/27 04:33:15;;;;;;;7.2;4.7;;;;;;;-1.68;78.70801;936.1306;;;;
2023/01/27 04:35:44;;;;;;;5.6;4.2;;;;;;;-1.72;78.44629;936.1328;;;;
2023/01/27 04:38:09;;;;;;;5.7;4.2;;;;;;;-1.66;78.19141;936.1387;;;;
2023/01/27 04:40:40;;;;;;;6.6;4.5;;;;;;;-1.62;78.09863;936.1636;;;;
2023/01/27 04:43:09;;;;;;;4.8;3.6;;;;;;;-1.69;77.7959;936.2339;;;;
2023/01/27 04:45:34;;;;;;;5.1;3.7;;;;;;;-1.85;77.91211;936.2842;;;;
2023/01/27 04:48:05;;;;;;;9.2;4.8;;;;;;;-1.9;78.83398;936.2519;;;;
2023/01/27 04:50:29;;;;;;;7.6;4.8;;;;;;;-1.8;78.89844;936.1848;;;;
2023/01/27 04:52:55;;;;;;;6.8;4.7;;;;;;;-1.84;78.44434;936.1805;;;;
2023/01/27 04:56:32;;;;;;;5.6;3.9;;;;;;;-1.88;78.80371;936.2455;;;;
2023/01/27 04:58:57;;;;;;;5.4;3.8;;;;;;;-1.96;78.0459;936.3022;;;;
2023/01/27 05:08:12;;;;;;;6.7;4.5;;;;;;;-1.93;78.65137;936.1548;;;;
2023/01/27 05:10:41;;;;;;;5.7;3.8;;;;;;;-1.94;77.77344;936.1499;;;;
2023/01/27 05:13:10;;;;;;;6.7;4.2;;;;;;;-1.91;78.52148;936.2012;;;;
2023/01/27 05:15:35;;;;;;;6.1;4.4;;;;;;;-1.79;77.37891;936.1359;;;;
2023/01/27 05:18:04;;;;;;;4.9;3.9;;;;;;;-1.77;76.81641;936.2494;;;;
2023/01/27 05:20:31;;;;;;;6.1;4;;;;;;;-1.65;76.87305;936.1345;;;;
2023/01/27 05:23:35;;;;;;;5.6;4.1;;;;;;;-1.45;76.53027;936.2439;;;;
2023/01/27 05:25:29;;;;;;;5.2;4.3;;;;;;;-1.52;76.14258;936.2654;;;;
2023/01/27 05:27:55;;;;;;;5.5;4.2;;;;;;;-1.64;76.94043;936.2272;;;;
2023/01/27 05:30:21;;;;;;;5.5;4.2;;;;;;;-1.49;76.94531;936.242;;;;
2023/01/27 05:32:50;;;;;;;7.5;4.6;;;;;;;-1.39;76.60938;936.2194;;;;
2023/01/27 05:35:15;;;;;;;6;4;;;;;;;-1.45;76.17773;936.2169;;;;
2023/01/27 05:37:42;;;;;;;5.7;3.8;;;;;;;-1.61;76.87891;936.1897;;;;
2023/01/27 05:40:07;;;;;;;6.1;4.1;;;;;;;-1.7;77.36328;936.226;;;;
2023/01/27 05:42:34;;;;;;;6.3;3.9;;;;;;;-1.71;77.69336;936.1767;;;;
2023/01/27 05:45:00;;;;;;;5.5;3.8;;;;;;;-1.65;77.74902;936.2672;;;;
2023/01/27 05:47:29;;;;;;;4.7;3.4;;;;;;;-1.76;77.66211;936.2827;;;;
2023/01/27 05:50:01;;;;;;;4.6;3.5;;;;;;;-1.87;78.62988;936.3003;;;;
2023/01/27 05:52:30;;;;;;;4.9;3.6;;;;;;;-1.81;78.82813;936.418;;;;
2023/01/27 05:55:01;;;;;;;5.9;4.2;;;;;;;-1.79;78.57617;936.4256;;;;
2023/01/27 05:57:26;;;;;;;5.1;3.9;;;;;;;-1.77;78.28027;936.467;;;;
2023/01/27 05:59:54;;;;;;;5.3;3.8;;;;;;;-1.8;78.18652;936.5322;;;;
2023/01/27 06:02:19;;;;;;;6.7;3.7;;;;;;;-1.81;78.28516;936.5129;;;;
2023/01/27 06:04:45;;;;;;;4.7;3.9;;;;;;;-1.8;78.28613;936.6102;;;;
2023/01/27 06:07:10;;;;;;;4.4;3.8;;;;;;;-1.68;78.1416;936.634;;;;
2023/01/27 06:09:39;;;;;;;5.1;3.6;;;;;;;-1.66;78.14648;936.6672;;;;
2023/01/27 06:12:03;;;;;;;5.7;5.1;;;;;;;-1.72;78.16895;936.7216;;;;
2023/01/27 06:14:31;;;;;;;5;3.5;;;;;;;-1.74;78.29688;936.7136;;;;
2023/01/27 06:16:58;;;;;;;6.2;4.3;;;;;;;-1.76;77.99414;936.735;;;;
2023/01/27 06:20:00;;;;;;;6.7;5;;;;;;;-1.78;78.77832;936.7152;;;;
2023/01/27 06:22:25;;;;;;;5;3.6;;;;;;;-1.66;78.25586;936.7644;;;;
2023/01/27 06:24:57;;;;;;;4.9;3.9;;;;;;;-1.71;77.3291;936.7029;;;;
2023/01/27 06:27:30;;;;;;;4.8;4.3;;;;;;;-1.75;77.875;936.6647;;;;
2023/01/27 06:30:02;;;;;;;4.3;3.2;;;;;;;-1.73;76.68066;936.6917;;;;
2023/01/27 06:32:27;;;;;;;5.2;3.4;;;;;;;-1.78;76.33789;936.6927;;;;
2023/01/27 06:34:57;;;;;;;4.1;3.1;;;;;;;-1.77;76.42773;936.6658;;;;
2023/01/27 06:37:22;;;;;;;4.2;3.4;;;;;;;-1.55;76.10254;936.7877;;;;
2023/01/27 06:39:53;;;;;;;5.1;3.6;;;;;;;-1.51;76.36426;936.7963;;;;
2023/01/27 06:42:22;;;;;;;5.1;3.6;;;;;;;-1.41;76.41602;936.824;;;;
2023/01/27 06:44:48;;;;;;;4.5;3.3;;;;;;;-1.28;76.18359;936.7745;;;;
2023/01/27 06:47:17;;;;;;;5;3.4;;;;;;;-1.2;75.80957;936.7721;;;;
2023/01/27 06:49:42;;;;;;;4.7;3.7;;;;;;;-1.16;75.40625;936.8713;;;;
2023/01/27 06:52:10;;;;;;;5.4;3;;;;;;;-1.07;74.46875;936.8036;;;;
2023/01/27 06:54:36;;;;;;;5.5;3.2;;;;;;;-1.04;74.55176;936.8736;;;;
2023/01/27 07:05:07;;;;;;;6.5;4.2;;;;;;;-1.67;76.625;936.9461;;;;
2023/01/27 07:07:35;;;;;;;6.6;5.1;;;;;;;-1.64;77.0293;936.9543;;;;
2023/01/27 07:10:00;;;;;;;6.9;5.3;;;;;;;-1.61;76.8916;937.0211;;;;
2023/01/27 07:12:28;;;;;;;6.3;4.5;;;;;;;-1.6;76.98047;937.0486;;;;
2023/01/27 07:14:53;;;;;;;6.9;5.7;;;;;;;-1.65;77.57129;937.0627;;;;
2023/01/27 07:17:22;;;;;;;6.7;4;;;;;;;-1.74;78.28516;937.0233;;;;
2023/01/27 07:19:49;;;;;;;6.3;4.4;;;;;;;-1.72;78.60156;937.0598;;;;
2023/01/27 07:22:14;;;;;;;4.4;3.5;;;;;;;-1.73;78.78613;937.1253;;;;
2023/01/27 07:24:41;;;;;;;5.1;3.7;;;;;;;-1.51;78.28516;937.1304;;;;
2023/01/27 07:27:06;;;;;;;6;4;;;;;;;-1.44;78.19824;937.1033;;;;
2023/01/27 07:29:34;;;;;;;5;3.7;;;;;;;-1.55;77.64746;937.1902;;;;
2023/01/27 07:31:59;;;;;;;6.1;4.1;;;;;;;-1.58;78.08301;937.1383;;;;
2023/01/27 07:34:29;;;;;;;6.1;4.1;;;;;;;-1.45;77.87598;937.2148;;;;
2023/01/27 07:36:54;;;;;;;5.4;4.4;;;;;;;-1.51;78.05176;937.1683;;;;
2023/01/27 07:39:20;;;;;;;6.5;4.2;;;;;;;-1.48;77.94727;937.1577;;;;
2023/01/27 07:41:45;;;;;;;13.7;8.7;;;;;;;-1.44;77.54297;937.1447;;;;
2023/01/27 07:44:11;;;;;;;6.5;3.7;;;;;;;-1.59;77.53711;937.1699;;;;
2023/01/27 07:46:36;;;;;;;9.6;6.3;;;;;;;-1.53;78.1709;937.155;;;;
2023/01/27 07:49:05;;;;;;;5.4;4;;;;;;;-1.43;77.46777;937.239;;;;
2023/01/27 07:51:30;;;;;;;6.7;4.2;;;;;;;-1.53;77.78223;937.1394;;;;
2023/01/27 07:53:56;;;;;;;6.5;4.8;;;;;;;-1.35;77.45801;937.1573;;;;
2023/01/27 07:56:21;;;;;;;6.2;4.4;;;;;;;-1.17;77.31543;937.0483;;;;
2023/01/27 07:58:47;;;;;;;6.3;4.3;;;;;;;-1.05;76.35742;937.1057;;;;
2023/01/27 08:01:29;;;;;;;20.4;10.1;;;;;;;-0.86;75.75098;937.0988;;;;
2023/01/27 08:03:56;;;;;;;5.2;3.8;;;;;;;-0.86;74.29297;936.9781;;;;
2023/01/27 08:06:21;;;;;;;5.8;4.1;;;;;;;-0.97;74.12891;937.0697;;;;
2023/01/27 08:08:50;;;;;;;5.9;4.1;;;;;;;-1.09;74.78613;937.0248;;;;
2023/01/27 08:11:16;;;;;;;18;10.9;;;;;;;-0.8;73.95898;937.0536;;;;
2023/01/27 08:13:44;;;;;;;5.3;4.2;;;;;;;-0.56;72.95605;936.8784;;;;
2023/01/27 08:16:17;;;;;;;6;4.1;;;;;;;-0.27;71.44824;936.9451;;;;
2023/01/27 08:18:44;;;;;;;13.5;7.1;;;;;;;0.13;70.33398;936.842;;;;
2023/01/27 08:21:11;;;;;;;118.5;72.9;;;;;;;0.14;70.53613;936.8729;;;;
2023/01/27 08:23:40;;;;;;;6.7;4.8;;;;;;;0.62;68.11719;936.82;;;;
2023/01/27 08:26:12;;;;;;;11.6;6.9;;;;;;;0.86;67.66504;936.8717;;;;
2023/01/27 08:28:39;;;;;;;64.4;32.7;;;;;;;0.83;65.96289;936.947;;;;
2023/01/27 08:31:04;;;;;;;68.3;37.2;;;;;;;-0.21;69.77734;936.9464;;;;
2023/01/27 08:33:31;;;;;;;13.3;7.3;;;;;;;-0.63;71.24219;936.9489;;;;
2023/01/27 08:35:56;;;;;;;18.5;11.3;;;;;;;-0.75;71.19824;936.9089;;;;
2023/01/27 08:38:23;;;;;;;11.6;6.5;;;;;;;-0.32;70.74805;936.9716;;;;
2023/01/27 08:40:48;;;;;;;10.4;6.4;;;;;;;0.05;68.86133;936.9645;;;;
2023/01/27 08:43:19;;;;;;;19.3;8.3;;;;;;;0.91;66.72363;936.9669;;;;
2023/01/27 08:45:49;;;;;;;24;9.4;;;;;;;2.79;61.8623;936.8678;;;;
2023/01/27 08:48:18;;;;;;;34.2;13.5;;;;;;;3.23;58.41211;936.9423;;;;
2023/01/27 08:50:43;;;;;;;31.9;15;;;;;;;4.87;54.27832;936.9506;;;;
2023/01/27 08:53:11;;;;;;;16.2;8.4;;;;;;;6.08;49.78711;936.9534;;;;
2023/01/27 08:55:36;;;;;;;11.7;6.7;;;;;;;5.4;48.35449;936.9308;;;;
2023/01/27 08:58:08;;;;;;;12.7;9.5;;;;;;;5.44;50.26563;937.0468;;;;
2023/01/27 09:00:36;;;;;;;5.2;3.9;;;;;;;5.91;48.07324;937.0154;;;;
2023/01/27 09:03:01;;;;;;;6.3;4.2;;;;;;;5.6;49.24707;937.0517;;;;
2023/01/27 09:05:32;;;;;;;6.4;5.4;;;;;;;4.09;51.17578;937.0744;;;;
2023/01/27 09:08:01;;;;;;;6.7;5;;;;;;;4.58;50.95313;937.0891;;;;
2023/01/27 09:10:26;;;;;;;6;4;;;;;;;5.21;50.49805;937.0987;;;;
2023/01/27 09:12:57;;;;;;;8;4.9;;;;;;;4.96;50.53613;937.1172;;;;
2023/01/27 09:15:34;;;;;;;5.1;3.3;;;;;;;4.19;51.81836;937.0718;;;;
2023/01/27 09:17:59;;;;;;;5.7;4.3;;;;;;;2.92;54.72559;937.1449;;;;
2023/01/27 09:20:29;;;;;;;4.9;3.8;;;;;;;2.4;57.30273;937.1344;;;;
2023/01/27 09:22:53;;;;;;;4.6;3;;;;;;;2.87;56.70508;937.0411;;;;
2023/01/27 09:25:23;;;;;;;4.8;3.3;;;;;;;2.82;56.78613;937.0956;;;;
2023/01/27 09:27:55;;;;;;;8.1;3.8;;;;;;;2.41;57.86328;937.0666;;;;
2023/01/27 09:30:20;;;;;;;7.4;4.1;;;;;;;1.42;60.62402;937.0609;;;;
2023/01/27 09:32:49;;;;;;;10.1;3.7;;;;;;;0.93;62.67383;937.0672;;;;
2023/01/27 09:35:20;;;;;;;15;6.7;;;;;;;0.94;61.35742;937.0137;;;;
2023/01/27 09:37:45;;;;;;;21.4;10.2;;;;;;;0.75;61.39844;937.0399;;;;
2023/01/27 09:40:15;;;;;;;15.2;8.5;;;;;;;0.56;63.20996;937.0224;;;;
2023/01/27 09:42:40;;;;;;;119.5;51.3;;;;;;;0.64;62.66504;937.0208;;;;
2023/01/27 09:45:41;;;;;;;30.9;14.8;;;;;;;0.69;63.33203;937.0276;;;;
2023/01/27 09:48:06;;;;;;;63.2;28.9;;;;;;;1.57;63.04883;936.9819;;;;
2023/01/27 09:50:31;;;;;;;4.8;3.3;;;;;;;2.36;60.90234;937.0518;;;;
2023/01/27 09:52:57;;;;;;;4.1;3.3;;;;;;;2.93;58.33691;937.0272;;;;
2023/01/27 09:55:23;;;;;;;3.9;3.2;;;;;;;3.05;58.15234;937.0027;;;;
2023/01/27 09:57:53;;;;;;;4.5;3.3;;;;;;;3.49;57.27051;937.0193;;;;
2023/01/27 10:00:26;;;;;;;3.6;2.9;;;;;;;3.84;55.31543;937.0879;;;;
2023/01/27 10:02:58;;;;;;;3.2;2.6;;;;;;;3.93;54.50684;937.1122;;;;
2023/01/27 10:05:24;;;;;;;4.8;3.4;;;;;;;3.7;54.81445;937.0753;;;;
2023/01/27 10:07:50;;;;;;;3.9;3.5;;;;;;;3.48;56.23535;937.1409;;;;
2023/01/27 10:10:25;;;;;;;4.1;3.3;;;;;;;3.24;57.50488;937.1181;;;;
2023/01/27 10:12:55;;;;;;;4.7;3.7;;;;;;;2.79;58.4082;937.1219;;;;
2023/01/27 10:15:22;;;;;;;5.3;3.8;;;;;;;2.66;58.3125;937.1439;;;;
2023/01/27 10:17:47;;;;;;;5.4;4;;;;;;;2.47;60.01172;937.101;;;;
2023/01/27 10:20:21;;;;;;;6.1;4;;;;;;;2.56;59.53125;937.1004;;;;
2023/01/27 10:22:50;;;;;;;5.6;4;;;;;;;2.49;59.93652;937.0977;;;;
2023/01/27 10:25:24;;;;;;;6;4;;;;;;;2.15;61.10938;937.1127;;;;
2023/01/27 10:27:50;;;;;;;6.3;4.8;;;;;;;1.97;62.33691;937.0826;;;;
2023/01/27 10:30:16;;;;;;;6.5;4.5;;;;;;;1.86;61.73926;937.1161;;;;
2023/01/27 10:32:41;;;;;;;5.7;4.3;;;;;;;2.01;61.83887;937.0538;;;;
2023/01/27 10:35:07;;;;;;;6.7;4.4;;;;;;;1.92;61.70215;937.1144;;;;
2023/01/27 10:37:35;;;;;;;6.1;4.4;;;;;;;1.87;62.27637;937.073;;;;
2023/01/27 10:40:04;;;;;;;6.6;4.5;;;;;;;1.66;63.56543;937.113;;;;
2023/01/27 10:42:31;;;;;;;4.7;3.2;;;;;;;1.65;63.01563;937.1472;;;;
2023/01/27 10:44:58;;;;;;;5.2;3.7;;;;;;;1.33;64.46484;937.124;;;;
2023/01/27 10:47:24;;;;;;;5.3;3.6;;;;;;;1.29;64.87305;937.0894;;;;
2023/01/27 10:49:52;;;;;;;5.1;3.9;;;;;;;1.37;64.96387;936.9766;;;;
2023/01/27 10:52:16;;;;;;;7.1;4.4;;;;;;;1.49;65.18457;936.9192;;;;
2023/01/27 10:54:45;;;;;;;6;4.5;;;;;;;1.7;65.88574;937.0204;;;;
2023/01/27 10:57:11;;;;;;;6.3;4.5;;;;;;;1.36;67.30859;936.9308;;;;
2023/01/27 10:59:36;;;;;;;6.3;4.7;;;;;;;1.56;66.96191;936.8884;;;;
2023/01/27 11:02:06;;;;;;;6.1;4.4;;;;;;;1.57;65.98926;937.0556;;;;
2023/01/27 11:04:32;;;;;;;5.5;4.1;;;;;;;1.56;66.4248;937.1716;;;;
2023/01/27 11:06:57;;;;;;;5;4.1;;;;;;;1.86;65.69824;937.1331;;;;
2023/01/27 11:09:27;;;;;;;5.2;3.8;;;;;;;1.92;65.73047;937.1735;;;;
2023/01/27 11:11:52;;;;;;;6.5;4.8;;;;;;;2.15;64.35645;937.152;;;;
2023/01/27 11:14:18;;;;;;;8;4.4;;;;;;;2.03;64.25879;937.2031;;;;
2023/01/27 11:16:44;;;;;;;6.1;4.6;;;;;;;2.07;65.14844;937.2311;;;;
2023/01/27 11:19:09;;;;;;;6.5;5.2;;;;;;;2;65.60938;937.2713;;;;
2023/01/27 11:21:38;;;;;;;6.4;4.9;;;;;;;2.01;65.33984;937.2004;;;;
2023/01/27 11:24:03;;;;;;;6.2;5;;;;;;;1.68;66.7666;937.3063;;;;
2023/01/27 11:26:29;;;;;;;7.1;5.4;;;;;;;1.8;66.99707;937.3856;;;;
2023/01/27 11:29:00;;;;;;;7;5.1;;;;;;;1.77;67.17383;937.3586;;;;
2023/01/27 11:31:28;;;;;;;7.3;5.6;;;;;;;1.88;66.60938;937.2692;;;;
2023/01/27 11:33:53;;;;;;;8.3;5.5;;;;;;;1.68;67.51758;937.2302;;;;
2023/01/27 11:36:17;;;;;;;8;5.9;;;;;;;1.74;67.17871;937.1609;;;;
2023/01/27 11:38:45;;;;;;;8.8;6;;;;;;;1.87;67.39063;937.1526;;;;
2023/01/27 11:41:18;;;;;;;10.6;6.1;;;;;;;1.89;66.99121;937.0865;;;;
2023/01/27 11:43:47;;;;;;;7.3;5.2;;;;;;;1.99;66.44824;936.8795;;;;
2023/01/27 11:46:13;;;;;;;6.8;5.2;;;;;;;2.23;65.61035;936.8206;;;;
2023/01/27 11:48:40;;;;;;;7.2;5.3;;;;;;;2.52;64.60156;936.8608;;;;
2023/01/27 11:51:05;;;;;;;7;5.4;;;;;;;2.15;66.42773;936.801;;;;
2023/01/27 11:53:35;;;;;;;6.6;5;;;;;;;1.96;66.70996;936.7249;;;;
2023/01/27 11:55:55;;;;;;;6.6;5.4;;;;;;;2.05;65.71777;936.7868;;;;
2023/01/27 11:58:20;;;;;;;7.3;5.5;;;;;;;1.95;66.74316;936.7883;;;;
2023/01/27 12:00:46;;;;;;;7.5;5.5;;;;;;;2.19;66.38867;936.8261;;;;
2023/01/27 12:03:11;;;;;;;7.1;5.3;;;;;;;2.06;67.19531;936.7848;;;;
2023/01/27 12:05:36;;;;;;;8.3;5.5;;;;;;;2.32;66.63379;936.8201;;;;
2023/01/27 12:08:01;;;;;;;7.6;5.3;;;;;;;2.39;65.82422;936.7975;;;;
2023/01/27 12:10:26;;;;;;;7.7;5.6;;;;;;;2.71;65.25781;936.813;;;;
2023/01/27 12:12:52;;;;;;;8.5;5.3;;;;;;;2.56;64.51855;936.8594;;;;
2023/01/27 12:15:17;;;;;;;15.6;6.3;;;;;;;2.47;65.91504;936.8109;;;;
2023/01/27 12:17:47;;;;;;;7.9;5.2;;;;;;;2.68;64.95117;936.7184;;;;
2023/01/27 12:20:12;;;;;;;7.7;5.5;;;;;;;2.7;64.23828;936.6556;;;;
2023/01/27 12:22:37;;;;;;;6.4;5.2;;;;;;;2.48;64.50684;936.6346;;;;
2023/01/27 12:25:02;;;;;;;7.7;5.6;;;;;;;2.07;65.90039;936.6038;;;;
2023/01/27 12:27:27;;;;;;;7.4;5.4;;;;;;;2.1;65.88184;936.6317;;;;
2023/01/27 12:29:53;;;;;;;8;5.7;;;;;;;2.17;65.9375;936.6256;;;;
2023/01/27 12:32:18;;;;;;;8.8;6.1;;;;;;;2.17;65.71387;936.6337;;;;
2023/01/27 12:34:44;;;;;;;8;5.8;;;;;;;1.72;67.03125;936.6517;;;;
2023/01/27 12:37:09;;;;;;;8.3;6.2;;;;;;;1.5;68.2041;936.7291;;;;
2023/01/27 12:39:35;;;;;;;6.9;5.6;;;;;;;1.43;68.79688;936.7381;;;;
2023/01/27 12:42:00;;;;;;;8.4;6;;;;;;;1.34;69.18359;936.7318;;;;
2023/01/27 12:44:26;;;;;;;7.8;6.2;;;;;;;1.22;69.8457;936.7314;;;;
2023/01/27 12:46:52;;;;;;;9.7;6.8;;;;;;;1.12;70.96875;936.8226;;;;
2023/01/27 12:49:21;;;;;;;8.5;6.2;;;;;;;0.89;71.82227;936.8117;;;;
2023/01/27 12:51:47;;;;;;;7.5;6.3;;;;;;;1.2;71.3623;936.8483;;;;
2023/01/27 12:54:12;;;;;;;10.8;6.6;;;;;;;1.2;71.37305;936.8303;;;;
2023/01/27 12:56:37;;;;;;;8.6;6.3;;;;;;;1.33;70.4541;936.7758;;;;
2023/01/27 12:59:02;;;;;;;8.1;6.3;;;;;;;1.45;70.41016;936.7797;;;;
2023/01/27 13:01:32;;;;;;;8.3;6.1;;;;;;;1.35;70.60449;936.775;;;;
2023/01/27 13:03:56;;;;;;;8.4;6.4;;;;;;;1.18;71.06836;936.7335;;;;
2023/01/27 13:06:21;;;;;;;8.7;6.4;;;;;;;1.02;71.91211;936.7935;;;;
2023/01/27 13:08:47;;;;;;;9.6;6.7;;;;;;;1.01;72.5791;936.6086;;;;
2023/01/27 13:11:17;;;;;;;8.5;6.2;;;;;;;1.17;72.10547;936.6876;;;;
2023/01/27 13:13:49;;;;;;;8.4;6.3;;;;;;;1.19;71.25879;936.5909;;;;
2023/01/27 13:16:14;;;;;;;6.7;5.5;;;;;;;1.16;71.23145;936.7123;;;;
2023/01/27 13:18:42;;;;;;;7.8;5.8;;;;;;;0.89;71.98926;936.7427;;;;
2023/01/27 13:21:11;;;;;;;8.3;6.4;;;;;;;0.92;72.71973;936.6898;;;;
2023/01/27 13:23:36;;;;;;;8;6;;;;;;;1.58;70.55371;936.6184;;;;
2023/01/27 13:26:01;;;;;;;7.5;5.9;;;;;;;2.02;68.70117;936.6654;;;;
2023/01/27 13:28:26;;;;;;;8;6;;;;;;;1.65;69.99414;936.6262;;;;
2023/01/27 13:30:51;;;;;;;7.6;5.9;;;;;;;1.68;70.06738;936.6331;;;;
2023/01/27 13:33:16;;;;;;;7.8;6;;;;;;;1.35;70.50488;936.6475;;;;
2023/01/27 13:35:42;;;;;;;9;6.4;;;;;;;1.48;70.56934;936.6175;;;;
2023/01/27 13:38:07;;;;;;;7.9;6;;;;;;;1.3;71.03223;936.6194;;;;
2023/01/27 13:40:32;;;;;;;8.1;6.5;;;;;;;1.46;70.77832;936.5696;;;;
2023/01/27 13:43:02;;;;;;;6.7;5.7;;;;;;;1.75;69.49707;936.6099;;;;
2023/01/27 13:45:31;;;;;;;7.7;5.8;;;;;;;1.81;68.81445;936.6283;;;;
2023/01/27 13:47:58;;;;;;;7.3;5.3;;;;;;;2.29;67.81543;936.6189;;;;
2023/01/27 13:50:29;;;;;;;7.7;5.7;;;;;;;2.29;67.07617;936.6361;;;;
2023/01/27 13:52:54;;;;;;;8;5.9;;;;;;;2.36;66.90723;936.7241;;;;
2023/01/27 13:55:19;;;;;;;7.1;5.1;;;;;;;2.2;66.6709;936.8032;;;;
2023/01/27 13:57:47;;;;;;;8.3;6;;;;;;;1.97;68.08887;936.8267;;;;
2023/01/27 14:00:15;;;;;;;7.9;6;;;;;;;1.89;68.46777;936.782;;;;
2023/01/27 14:02:40;;;;;;;7.1;5.8;;;;;;;1.7;69.51074;936.9334;;;;
2023/01/27 14:05:05;;;;;;;7.6;5.5;;;;;;;1.77;68.76172;936.8336;;;;
2023/01/27 14:07:30;;;;;;;7.1;5.5;;;;;;;1.53;69.49414;936.9058;;;;
2023/01/27 14:09:55;;;;;;;7.3;5.6;;;;;;;1.61;69.65234;936.9267;;;;
2023/01/27 14:12:21;;;;;;;6.4;5;;;;;;;1.46;69.78516;936.8962;;;;
2023/01/27 14:14:47;;;;;;;6.4;5;;;;;;;1.22;70.88281;936.8802;;;;
2023/01/27 14:17:12;;;;;;;7.1;4.9;;;;;;;1.21;71.07324;936.9781;;;;
2023/01/27 14:19:38;;;;;;;8.5;5.8;;;;;;;1.11;72.2168;936.9568;;;;
2023/01/27 14:22:06;;;;;;;7.2;5.4;;;;;;;1.15;71.98926;936.885;;;;
2023/01/27 14:24:31;;;;;;;7.6;5.5;;;;;;;0.89;72.59277;936.8917;;;;
2023/01/27 14:26:59;;;;;;;7.3;5.7;;;;;;;0.69;74.04199;936.9133;;;;
2023/01/27 14:29:21;;;;;;;7.8;6.2;;;;;;;0.68;74.49805;936.935;;;;
2023/01/27 14:31:46;;;;;;;9;5.9;;;;;;;0.64;74.67969;936.9205;;;;
2023/01/27 14:34:12;;;;;;;7.7;5.7;;;;;;;0.7;74.60156;936.9529;;;;
2023/01/27 14:36:39;;;;;;;9;6;;;;;;;0.54;75.35547;936.9684;;;;
2023/01/27 14:39:04;;;;;;;9.7;6.7;;;;;;;0.46;76.05273;936.9609;;;;
2023/01/27 14:41:29;;;;;;;7.7;6.1;;;;;;;0.41;76.125;936.9902;;;;
2023/01/27 14:43:54;;;;;;;7.8;5.8;;;;;;;0.39;76.61035;937.0272;;;;
2023/01/27 14:46:20;;;;;;;7.6;5.7;;;;;;;0.37;76.36035;937.0482;;;;
2023/01/27 14:48:45;;;;;;;8.2;6;;;;;;;0.49;76.22656;937.0672;;;;
2023/01/27 14:51:11;;;;;;;8.2;5.9;;;;;;;0.47;76.20117;937.1016;;;;
2023/01/27 14:53:38;;;;;;;8.7;6.2;;;;;;;0.48;76.49316;937.0425;;;;
2023/01/27 14:56:05;;;;;;;8.5;6;;;;;;;0.52;76.23145;937.1506;;;;
2023/01/27 14:58:30;;;;;;;10.2;6.4;;;;;;;0.48;76.82617;937.1457;;;;
2023/01/27 15:00:55;;;;;;;7.6;5.8;;;;;;;0.44;76.86523;937.1347;;;;
2023/01/27 15:03:21;;;;;;;7.5;5.7;;;;;;;0.3;77.30566;937.1295;;;;
2023/01/27 15:05:46;;;;;;;8.6;6.2;;;;;;;0.37;77.56641;937.1102;;;;
2023/01/27 15:08:11;;;;;;;8;5.9;;;;;;;0.35;77.63867;937.0424;;;;
2023/01/27 15:10:36;;;;;;;9.3;6.2;;;;;;;0.4;77.88184;937.0979;;;;
2023/01/27 15:13:01;;;;;;;8.9;5.8;;;;;;;0.32;78.14648;937.1703;;;;
2023/01/27 15:15:26;;;;;;;8.4;6;;;;;;;0.34;78.09473;937.2017;;;;
2023/01/27 15:17:56;;;;;;;7.9;5.9;;;;;;;0.3;78.06348;937.1389;;;;
2023/01/27 15:20:25;;;;;;;9.2;5.9;;;;;;;0.33;78.33789;937.1848;;;;
2023/01/27 15:22:50;;;;;;;9.3;6.3;;;;;;;0.38;78.24805;937.2633;;;;
2023/01/27 15:25:20;;;;;;;7.3;5.3;;;;;;;0.42;77.85254;937.1833;;;;
2023/01/27 15:27:49;;;;;;;9.9;6.2;;;;;;;0.44;77.94531;937.2967;;;;
2023/01/27 15:30:20;;;;;;;9.7;6.1;;;;;;;0.47;77.93945;937.2947;;;;
2023/01/27 15:32:45;;;;;;;8.6;6;;;;;;;0.52;77.71484;937.4257;;;;
2023/01/27 15:35:17;;;;;;;8.9;6.2;;;;;;;0.56;77.61035;937.3922;;;;
2023/01/27 15:37:44;;;;;;;7.9;5.5;;;;;;;0.51;77.79199;937.3256;;;;
2023/01/27 15:40:10;;;;;;;8.7;5.9;;;;;;;0.52;77.6709;937.3613;;;;
2023/01/27 15:42:38;;;;;;;8.2;5.6;;;;;;;0.31;78.3125;937.4166;;;;
2023/01/27 15:45:10;;;;;;;7.7;5.5;;;;;;;0.28;78.5957;937.4205;;;;
2023/01/27 15:47:36;;;;;;;7.9;5.2;;;;;;;0.32;78.54785;937.4265;;;;
2023/01/27 15:50:00;;;;;;;10;6;;;;;;;0.37;78.36719;937.4984;;;;
2023/01/27 15:52:29;;;;;;;7;5.3;;;;;;;0.25;78.34668;937.5204;;;;
2023/01/27 15:54:57;;;;;;;9;6.2;;;;;;;0.23;78.61914;937.5278;;;;
2023/01/27 15:57:23;;;;;;;8.4;6;;;;;;;0.02;79.12598;937.5585;;;;
2023/01/27 15:59:49;;;;;;;11.7;7.6;;;;;;;0.04;79.27637;937.5908;;;;
2023/01/27 16:02:14;;;;;;;9.3;6.6;;;;;;;-0.02;79.66699;937.5856;;;;
2023/01/27 16:04:41;;;;;;;8.2;6.1;;;;;;;-0.05;79.93652;937.6394;;;;
2023/01/27 16:07:11;;;;;;;8.9;6.3;;;;;;;-0.04;79.96191;937.6802;;;;
2023/01/27 16:09:38;;;;;;;9.5;6.2;;;;;;;-0.07;80.20215;937.699;;;;
2023/01/27 16:12:03;;;;;;;9.3;5.5;;;;;;;-0.06;80.42676;937.7214;;;;
2023/01/27 16:14:28;;;;;;;7.6;5.1;;;;;;;0;80.38281;937.7034;;;;
2023/01/27 16:16:58;;;;;;;7.7;4.9;;;;;;;-0.09;80.83398;937.7792;;;;
2023/01/27 16:19:22;;;;;;;6.9;4.7;;;;;;;-0.12;81.12891;937.7967;;;;
2023/01/27 16:21:49;;;;;;;8.1;5.6;;;;;;;-0.12;81.36328;937.7106;;;;
2023/01/27 16:24:14;;;;;;;8.5;5.8;;;;;;;-0.1;81.40039;937.8087;;;;
2023/01/27 16:26:39;;;;;;;6.4;4.6;;;;;;;-0.13;81.63574;937.8139;;;;
2023/01/27 16:29:07;;;;;;;7.6;5.4;;;;;;;-0.13;81.88281;937.8743;;;;